sensor_id;sensor_type;location;lat;lon;timestamp;P1;P2;P0
34176;PMS7003;20450;49.074;9.158;2023-05-07T00:01:37;7.00;6.00;5.00
34176;PMS7003;20450;49.074;9.158;2023-05-07T00:04:04;6.00;6.00;5.00
34176;PMS7003;20450;49.074;9.158;2023-05-07T00:06:32;7.25;5.00;4.75
34176;PMS7003;20450;49.074;9.158;2023-05-07T00:09:00;4.25;2.50;2.00
34176;PMS7003;20450;49.074;9.158;2023-05-07T00:11:28;5.50;5.50;4.50
34176;PMS7003;20450;49.074;9.158;2023-05-07T00:13:55;10.50;7.00;5.00
34176;PMS7003;20450;49.074;9.158;2023-05-07T00:16:22;5.00;5.00;4.75
34176;PMS7003;20450;49.074;9.158;2023-05-07T00:18:49;5.00;5.00;4.75
34176;PMS7003;20450;49.074;9.158;2023-05-07T00:21:16;5.00;5.00;5.00
34176;PMS7003;20450;49.074;9.158;2023-05-07T00:23:43;7.25;7.25;7.00
34176;PMS7003;20450;49.074;9.158;2023-05-07T00:26:10;3.00;3.00;2.00
34176;PMS7003;20450;49.074;9.158;2023-05-07T00:28:40;5.00;5.00;5.00
34176;PMS7003;20450;49.074;9.158;2023-05-07T00:31:07;8.25;5.00;4.50
34176;PMS7003;20450;49.074;9.158;2023-05-07T00:33:34;5.00;5.00;4.00
34176;PMS7003;20450;49.074;9.158;2023-05-07T00:36:01;5.00;5.00;4.25
34176;PMS7003;20450;49.074;9.158;2023-05-07T00:38:29;7.25;5.50;5.50
34176;PMS7003;20450;49.074;9.158;2023-05-07T00:40:56;7.75;5.00;5.00
34176;PMS7003;20450;49.074;9.158;2023-05-07T00:43:23;6.25;5.25;4.25
34176;PMS7003;20450;49.074;9.158;2023-05-07T00:45:51;6.00;6.00;5.00
34176;PMS7003;20450;49.074;9.158;2023-05-07T00:48:18;5.00;5.00;4.25
34176;PMS7003;20450;49.074;9.158;2023-05-07T00:50:45;9.00;8.00;5.00
34176;PMS7003;20450;49.074;9.158;2023-05-07T00:53:13;7.25;5.50;5.00
34176;PMS7003;20450;49.074;9.158;2023-05-07T00:55:40;7.75;7.75;6.50
34176;PMS7003;20450;49.074;9.158;2023-05-07T00:58:08;5.00;4.00;2.00
34176;PMS7003;20450;49.074;9.158;2023-05-07T01:00:35;7.25;6.50;5.00
34176;PMS7003;20450;49.074;9.158;2023-05-07T01:03:03;6.00;6.00;5.00
34176;PMS7003;20450;49.074;9.158;2023-05-07T01:05:32;3.50;3.50;1.75
34176;PMS7003;20450;49.074;9.158;2023-05-07T01:07:59;7.25;5.00;3.00
34176;PMS7003;20450;49.074;9.158;2023-05-07T01:10:29;7.50;5.00;5.00
34176;PMS7003;20450;49.074;9.158;2023-05-07T01:12:57;6.00;5.00;4.50
34176;PMS7003;20450;49.074;9.158;2023-05-07T01:15:26;5.00;5.00;4.00
34176;PMS7003;20450;49.074;9.158;2023-05-07T01:17:53;8.50;5.75;5.50
34176;PMS7003;20450;49.074;9.158;2023-05-07T01:20:29;2.50;2.00;1.00
34176;PMS7003;20450;49.074;9.158;2023-05-07T01:22:58;7.75;6.00;4.25
34176;PMS7003;20450;49.074;9.158;2023-05-07T01:25:27;5.00;4.00;3.50
34176;PMS7003;20450;49.074;9.158;2023-05-07T01:27:58;9.50;7.75;6.00
34176;PMS7003;20450;49.074;9.158;2023-05-07T01:30:28;11.00;10.00;8.50
34176;PMS7003;20450;49.074;9.158;2023-05-07T01:32:59;10.75;7.75;5.75
34176;PMS7003;20450;49.074;9.158;2023-05-07T01:35:34;7.25;5.50;5.00
34176;PMS7003;20450;49.074;9.158;2023-05-07T01:38:09;6.50;4.75;4.50
34176;PMS7003;20450;49.074;9.158;2023-05-07T01:40:37;9.50;7.75;7.00
34176;PMS7003;20450;49.074;9.158;2023-05-07T01:43:04;7.00;5.00;3.50
34176;PMS7003;20450;49.074;9.158;2023-05-07T01:45:34;7.25;7.25;6.50
34176;PMS7003;20450;49.074;9.158;2023-05-07T01:48:02;7.75;7.50;6.50
34176;PMS7003;20450;49.074;9.158;2023-05-07T01:50:31;8.50;6.50;5.00
34176;PMS7003;20450;49.074;9.158;2023-05-07T01:53:00;3.00;3.00;2.50
34176;PMS7003;20450;49.074;9.158;2023-05-07T01:55:30;4.50;4.50;2.00
34176;PMS7003;20450;49.074;9.158;2023-05-07T01:57:57;6.50;6.50;5.50
34176;PMS7003;20450;49.074;9.158;2023-05-07T02:00:25;7.00;5.00;4.75
34176;PMS7003;20450;49.074;9.158;2023-05-07T02:02:54;8.25;7.00;6.00
34176;PMS7003;20450;49.074;9.158;2023-05-07T02:05:50;6.25;5.00;5.00
34176;PMS7003;20450;49.074;9.158;2023-05-07T02:08:26;5.00;4.75;4.00
34176;PMS7003;20450;49.074;9.158;2023-05-07T02:10:55;9.50;8.25;7.00
34176;PMS7003;20450;49.074;9.158;2023-05-07T02:13:22;8.50;5.50;4.50
34176;PMS7003;20450;49.074;9.158;2023-05-07T02:15:49;9.00;7.25;4.50
34176;PMS7003;20450;49.074;9.158;2023-05-07T02:18:17;7.00;6.00;5.75
34176;PMS7003;20450;49.074;9.158;2023-05-07T02:20:44;8.75;7.25;6.50
34176;PMS7003;20450;49.074;9.158;2023-05-07T02:23:11;17.00;14.00;8.50
34176;PMS7003;20450;49.074;9.158;2023-05-07T02:25:38;9.25;6.50;5.00
34176;PMS7003;20450;49.074;9.158;2023-05-07T02:28:06;7.50;7.00;6.00
34176;PMS7003;20450;49.074;9.158;2023-05-07T02:30:45;7.00;5.00;2.50
34176;PMS7003;20450;49.074;9.158;2023-05-07T02:33:12;9.75;6.50;5.25
34176;PMS7003;20450;49.074;9.158;2023-05-07T02:35:40;7.00;7.00;5.00
34176;PMS7003;20450;49.074;9.158;2023-05-07T02:38:07;13.00;7.75;6.00
34176;PMS7003;20450;49.074;9.158;2023-05-07T02:40:35;5.75;4.25;3.00
34176;PMS7003;20450;49.074;9.158;2023-05-07T02:43:02;6.75;6.75;4.75
34176;PMS7003;20450;49.074;9.158;2023-05-07T02:45:30;11.75;10.25;6.50
34176;PMS7003;20450;49.074;9.158;2023-05-07T02:47:58;10.50;8.75;6.50
34176;PMS7003;20450;49.074;9.158;2023-05-07T02:50:25;8.50;8.50;6.25
34176;PMS7003;20450;49.074;9.158;2023-05-07T02:52:53;6.00;6.00;5.25
34176;PMS7003;20450;49.074;9.158;2023-05-07T02:55:20;5.25;4.50;3.25
34176;PMS7003;20450;49.074;9.158;2023-05-07T02:57:47;5.25;5.25;4.00
34176;PMS7003;20450;49.074;9.158;2023-05-07T03:00:15;8.50;7.00;5.50
34176;PMS7003;20450;49.074;9.158;2023-05-07T03:02:56;5.33;5.33;4.00
34176;PMS7003;20450;49.074;9.158;2023-05-07T03:05:24;6.75;6.75;5.25
34176;PMS7003;20450;49.074;9.158;2023-05-07T03:07:51;6.25;5.75;4.00
34176;PMS7003;20450;49.074;9.158;2023-05-07T03:10:21;6.00;5.75;4.00
34176;PMS7003;20450;49.074;9.158;2023-05-07T03:12:49;6.75;6.25;5.00
34176;PMS7003;20450;49.074;9.158;2023-05-07T03:15:16;6.25;4.00;4.00
34176;PMS7003;20450;49.074;9.158;2023-05-07T03:17:44;11.00;8.50;5.25
34176;PMS7003;20450;49.074;9.158;2023-05-07T03:20:12;6.75;5.25;4.75
34176;PMS7003;20450;49.074;9.158;2023-05-07T03:22:41;8.50;5.50;5.00
34176;PMS7003;20450;49.074;9.158;2023-05-07T03:25:08;6.25;3.50;3.50
34176;PMS7003;20450;49.074;9.158;2023-05-07T03:27:37;6.50;6.00;4.50
34176;PMS7003;20450;49.074;9.158;2023-05-07T03:30:05;5.25;5.25;5.00
34176;PMS7003;20450;49.074;9.158;2023-05-07T03:32:33;5.50;4.00;3.50
34176;PMS7003;20450;49.074;9.158;2023-05-07T03:35:04;4.50;4.50;4.00
34176;PMS7003;20450;49.074;9.158;2023-05-07T03:37:34;5.25;5.25;4.00
34176;PMS7003;20450;49.074;9.158;2023-05-07T03:40:02;7.25;7.25;4.00
34176;PMS7003;20450;49.074;9.158;2023-05-07T03:42:32;7.00;7.00;5.75
34176;PMS7003;20450;49.074;9.158;2023-05-07T03:45:00;7.00;5.50;4.00
34176;PMS7003;20450;49.074;9.158;2023-05-07T03:47:29;6.50;5.00;3.50
34176;PMS7003;20450;49.074;9.158;2023-05-07T03:49:56;11.00;9.00;7.00
34176;PMS7003;20450;49.074;9.158;2023-05-07T03:52:24;9.00;9.00;6.67
34176;PMS7003;20450;49.074;9.158;2023-05-07T03:54:55;4.00;3.75;3.00
34176;PMS7003;20450;49.074;9.158;2023-05-07T03:57:21;5.50;5.50;4.00
34176;PMS7003;20450;49.074;9.158;2023-05-07T03:59:49;6.00;4.00;3.25
34176;PMS7003;20450;49.074;9.158;2023-05-07T04:02:17;9.00;6.25;5.75
34176;PMS7003;20450;49.074;9.158;2023-05-07T04:04:44;4.00;4.00;4.00
34176;PMS7003;20450;49.074;9.158;2023-05-07T04:07:11;6.75;5.50;5.00
34176;PMS7003;20450;49.074;9.158;2023-05-07T04:09:42;7.00;7.00;5.00
34176;PMS7003;20450;49.074;9.158;2023-05-07T04:12:27;5.00;5.00;4.00
34176;PMS7003;20450;49.074;9.158;2023-05-07T04:14:54;7.00;7.00;5.00
34176;PMS7003;20450;49.074;9.158;2023-05-07T04:17:23;4.75;4.75;4.00
34176;PMS7003;20450;49.074;9.158;2023-05-07T04:19:50;8.50;6.50;5.00
34176;PMS7003;20450;49.074;9.158;2023-05-07T04:22:17;10.00;10.00;7.00
34176;PMS7003;20450;49.074;9.158;2023-05-07T04:24:44;7.00;7.00;6.25
34176;PMS7003;20450;49.074;9.158;2023-05-07T04:27:12;7.25;7.25;6.50
34176;PMS7003;20450;49.074;9.158;2023-05-07T04:29:41;8.25;8.25;5.75
34176;PMS7003;20450;49.074;9.158;2023-05-07T04:32:10;7.00;7.00;5.75
34176;PMS7003;20450;49.074;9.158;2023-05-07T04:34:39;10.25;7.50;5.25
34176;PMS7003;20450;49.074;9.158;2023-05-07T04:37:06;5.67;5.67;5.33
34176;PMS7003;20450;49.074;9.158;2023-05-07T04:39:33;7.50;7.50;5.25
34176;PMS7003;20450;49.074;9.158;2023-05-07T04:42:00;6.75;6.75;4.25
34176;PMS7003;20450;49.074;9.158;2023-05-07T04:44:27;7.25;7.25;6.75
34176;PMS7003;20450;49.074;9.158;2023-05-07T04:46:56;9.25;7.00;4.75
34176;PMS7003;20450;49.074;9.158;2023-05-07T04:49:23;7.00;7.00;5.00
34176;PMS7003;20450;49.074;9.158;2023-05-07T04:51:53;8.00;8.00;6.00
34176;PMS7003;20450;49.074;9.158;2023-05-07T04:54:21;6.00;6.00;5.00
34176;PMS7003;20450;49.074;9.158;2023-05-07T04:56:48;8.50;7.75;5.00
34176;PMS7003;20450;49.074;9.158;2023-05-07T04:59:15;5.50;5.50;4.75
34176;PMS7003;20450;49.074;9.158;2023-05-07T05:01:43;10.25;8.25;6.75
34176;PMS7003;20450;49.074;9.158;2023-05-07T05:04:11;6.00;6.00;5.50
34176;PMS7003;20450;49.074;9.158;2023-05-07T05:06:39;5.25;4.75;3.25
34176;PMS7003;20450;49.074;9.158;2023-05-07T05:09:07;5.00;5.00;5.00
34176;PMS7003;20450;49.074;9.158;2023-05-07T05:11:34;7.25;5.00;4.00
34176;PMS7003;20450;49.074;9.158;2023-05-07T05:14:01;6.25;5.25;4.25
34176;PMS7003;20450;49.074;9.158;2023-05-07T05:16:28;7.50;7.25;6.00
34176;PMS7003;20450;49.074;9.158;2023-05-07T05:18:55;12.25;9.00;6.75
34176;PMS7003;20450;49.074;9.158;2023-05-07T05:21:23;6.00;5.25;5.00
34176;PMS7003;20450;49.074;9.158;2023-05-07T05:23:55;8.50;8.25;7.00
34176;PMS7003;20450;49.074;9.158;2023-05-07T05:26:24;6.50;5.00;4.50
34176;PMS7003;20450;49.074;9.158;2023-05-07T05:28:51;6.00;6.00;5.50
34176;PMS7003;20450;49.074;9.158;2023-05-07T05:31:20;6.50;6.50;5.00
34176;PMS7003;20450;49.074;9.158;2023-05-07T05:33:49;6.75;6.75;5.75
34176;PMS7003;20450;49.074;9.158;2023-05-07T05:36:16;7.00;6.50;5.00
34176;PMS7003;20450;49.074;9.158;2023-05-07T05:38:46;8.50;7.00;6.75
34176;PMS7003;20450;49.074;9.158;2023-05-07T05:41:13;10.00;7.00;5.20
34176;PMS7003;20450;49.074;9.158;2023-05-07T05:43:40;7.75;7.75;6.25
34176;PMS7003;20450;49.074;9.158;2023-05-07T05:46:08;6.60;6.60;5.60
34176;PMS7003;20450;49.074;9.158;2023-05-07T05:48:35;7.80;6.40;5.20
34176;PMS7003;20450;49.074;9.158;2023-05-07T05:51:03;7.50;7.50;6.00
34176;PMS7003;20450;49.074;9.158;2023-05-07T05:53:30;6.00;6.00;4.80
34176;PMS7003;20450;49.074;9.158;2023-05-07T05:55:59;7.00;6.50;6.25
34176;PMS7003;20450;49.074;9.158;2023-05-07T05:58:26;8.00;7.40;5.60
34176;PMS7003;20450;49.074;9.158;2023-05-07T06:00:58;7.60;6.80;6.00
34176;PMS7003;20450;49.074;9.158;2023-05-07T06:03:27;7.20;7.20;6.00
34176;PMS7003;20450;49.074;9.158;2023-05-07T06:05:56;8.80;8.80;7.20
34176;PMS7003;20450;49.074;9.158;2023-05-07T06:08:23;5.40;5.40;5.00
34176;PMS7003;20450;49.074;9.158;2023-05-07T06:10:50;6.20;6.20;5.60
34176;PMS7003;20450;49.074;9.158;2023-05-07T06:13:19;5.00;5.00;4.20
34176;PMS7003;20450;49.074;9.158;2023-05-07T06:15:46;10.20;9.00;8.00
34176;PMS7003;20450;49.074;9.158;2023-05-07T06:18:13;14.40;12.20;10.60
34176;PMS7003;20450;49.074;9.158;2023-05-07T06:20:40;5.80;5.60;4.40
34176;PMS7003;20450;49.074;9.158;2023-05-07T06:23:14;9.20;7.80;7.00
34176;PMS7003;20450;49.074;9.158;2023-05-07T06:25:45;9.20;7.80;6.80
34176;PMS7003;20450;49.074;9.158;2023-05-07T06:28:15;12.40;11.20;8.80
34176;PMS7003;20450;49.074;9.158;2023-05-07T06:30:44;7.00;6.60;6.00
34176;PMS7003;20450;49.074;9.158;2023-05-07T06:33:11;7.00;6.20;5.80
34176;PMS7003;20450;49.074;9.158;2023-05-07T06:35:38;7.40;7.40;6.60
34176;PMS7003;20450;49.074;9.158;2023-05-07T06:38:05;7.00;7.00;6.60
34176;PMS7003;20450;49.074;9.158;2023-05-07T06:40:32;6.60;6.60;5.20
34176;PMS7003;20450;49.074;9.158;2023-05-07T06:43:00;7.20;6.80;5.60
34176;PMS7003;20450;49.074;9.158;2023-05-07T06:45:34;7.00;7.00;6.00
34176;PMS7003;20450;49.074;9.158;2023-05-07T06:48:04;7.60;7.60;6.40
34176;PMS7003;20450;49.074;9.158;2023-05-07T06:50:39;9.00;8.00;6.60
34176;PMS7003;20450;49.074;9.158;2023-05-07T06:53:08;9.00;7.80;6.40
34176;PMS7003;20450;49.074;9.158;2023-05-07T06:55:34;6.80;6.80;6.60
34176;PMS7003;20450;49.074;9.158;2023-05-07T06:58:02;7.40;7.40;6.40
34176;PMS7003;20450;49.074;9.158;2023-05-07T07:00:29;6.40;5.60;5.00
34176;PMS7003;20450;49.074;9.158;2023-05-07T07:02:56;7.40;7.40;6.40
34176;PMS7003;20450;49.074;9.158;2023-05-07T07:05:27;7.00;7.00;6.00
34176;PMS7003;20450;49.074;9.158;2023-05-07T07:07:55;6.60;6.60;5.20
34176;PMS7003;20450;49.074;9.158;2023-05-07T07:10:23;7.00;7.00;5.40
34176;PMS7003;20450;49.074;9.158;2023-05-07T07:12:51;9.40;8.00;7.00
34176;PMS7003;20450;49.074;9.158;2023-05-07T07:15:19;6.40;6.40;5.00
34176;PMS7003;20450;49.074;9.158;2023-05-07T07:17:47;7.00;6.00;6.00
34176;PMS7003;20450;49.074;9.158;2023-05-07T07:20:14;6.80;6.80;5.80
34176;PMS7003;20450;49.074;9.158;2023-05-07T07:22:45;6.40;6.40;6.00
34176;PMS7003;20450;49.074;9.158;2023-05-07T07:25:13;7.40;7.40;6.40
34176;PMS7003;20450;49.074;9.158;2023-05-07T07:27:40;6.20;6.20;5.00
34176;PMS7003;20450;49.074;9.158;2023-05-07T07:30:08;5.60;5.60;5.00
34176;PMS7003;20450;49.074;9.158;2023-05-07T07:32:39;7.40;6.80;6.20
34176;PMS7003;20450;49.074;9.158;2023-05-07T07:35:06;7.40;7.40;6.80
34176;PMS7003;20450;49.074;9.158;2023-05-07T07:37:36;7.20;6.40;5.00
34176;PMS7003;20450;49.074;9.158;2023-05-07T07:40:05;6.20;6.20;4.80
34176;PMS7003;20450;49.074;9.158;2023-05-07T07:42:34;5.60;5.60;5.00
34176;PMS7003;20450;49.074;9.158;2023-05-07T07:45:01;7.00;7.00;6.20
34176;PMS7003;20450;49.074;9.158;2023-05-07T07:47:32;6.00;6.00;5.40
34176;PMS7003;20450;49.074;9.158;2023-05-07T07:49:59;7.80;6.40;5.40
34176;PMS7003;20450;49.074;9.158;2023-05-07T07:52:26;5.40;5.40;4.40
34176;PMS7003;20450;49.074;9.158;2023-05-07T07:54:53;5.00;5.00;4.40
34176;PMS7003;20450;49.074;9.158;2023-05-07T07:57:23;6.20;6.00;5.60
34176;PMS7003;20450;49.074;9.158;2023-05-07T07:59:50;5.20;5.20;4.80
34176;PMS7003;20450;49.074;9.158;2023-05-07T08:02:18;7.20;6.00;6.00
34176;PMS7003;20450;49.074;9.158;2023-05-07T08:04:48;6.40;5.20;4.40
34176;PMS7003;20450;49.074;9.158;2023-05-07T08:07:16;8.00;8.00;7.00
34176;PMS7003;20450;49.074;9.158;2023-05-07T08:09:44;5.00;5.00;4.40
34176;PMS7003;20450;49.074;9.158;2023-05-07T08:12:12;5.00;5.00;4.00
34176;PMS7003;20450;49.074;9.158;2023-05-07T08:14:41;4.00;4.00;3.20
34176;PMS7003;20450;49.074;9.158;2023-05-07T08:17:09;5.20;5.20;4.60
34176;PMS7003;20450;49.074;9.158;2023-05-07T08:19:37;6.20;6.00;4.80
34176;PMS7003;20450;49.074;9.158;2023-05-07T08:22:07;4.80;4.00;3.00
34176;PMS7003;20450;49.074;9.158;2023-05-07T08:24:34;5.60;5.60;5.00
34176;PMS7003;20450;49.074;9.158;2023-05-07T08:27:00;4.80;4.80;4.20
34176;PMS7003;20450;49.074;9.158;2023-05-07T08:29:27;5.60;5.60;5.20
34176;PMS7003;20450;49.074;9.158;2023-05-07T08:31:56;5.60;5.60;4.00
34176;PMS7003;20450;49.074;9.158;2023-05-07T08:34:23;4.20;4.20;4.00
34176;PMS7003;20450;49.074;9.158;2023-05-07T08:36:53;6.20;6.00;5.00
34176;PMS7003;20450;49.074;9.158;2023-05-07T08:39:22;5.00;5.00;4.00
34176;PMS7003;20450;49.074;9.158;2023-05-07T08:41:52;4.40;4.40;4.00
34176;PMS7003;20450;49.074;9.158;2023-05-07T08:44:22;5.20;4.40;4.00
34176;PMS7003;20450;49.074;9.158;2023-05-07T08:46:58;5.00;5.00;4.40
34176;PMS7003;20450;49.074;9.158;2023-05-07T08:49:29;4.60;4.60;4.40
34176;PMS7003;20450;49.074;9.158;2023-05-07T08:51:56;4.40;3.20;3.00
34176;PMS7003;20450;49.074;9.158;2023-05-07T08:54:24;4.00;4.00;4.00
34176;PMS7003;20450;49.074;9.158;2023-05-07T08:56:53;4.00;4.00;4.00
34176;PMS7003;20450;49.074;9.158;2023-05-07T08:59:20;4.40;4.40;3.60
34176;PMS7003;20450;49.074;9.158;2023-05-07T09:01:47;3.80;3.80;3.20
34176;PMS7003;20450;49.074;9.158;2023-05-07T09:04:16;3.60;3.60;3.60
34176;PMS7003;20450;49.074;9.158;2023-05-07T09:06:44;4.20;4.20;4.00
34176;PMS7003;20450;49.074;9.158;2023-05-07T09:09:14;3.20;3.20;3.00
34176;PMS7003;20450;49.074;9.158;2023-05-07T09:11:43;5.40;5.00;4.20
34176;PMS7003;20450;49.074;9.158;2023-05-07T09:14:12;3.00;3.00;3.00
34176;PMS7003;20450;49.074;9.158;2023-05-07T09:16:42;4.20;4.20;4.00
34176;PMS7003;20450;49.074;9.158;2023-05-07T09:19:09;6.00;5.00;4.00
34176;PMS7003;20450;49.074;9.158;2023-05-07T09:21:43;4.00;4.00;3.20
34176;PMS7003;20450;49.074;9.158;2023-05-07T09:24:11;4.00;4.00;4.00
34176;PMS7003;20450;49.074;9.158;2023-05-07T09:26:42;5.00;5.00;4.00
34176;PMS7003;20450;49.074;9.158;2023-05-07T09:29:11;3.40;3.40;3.40
34176;PMS7003;20450;49.074;9.158;2023-05-07T09:31:39;4.00;4.00;3.80
34176;PMS7003;20450;49.074;9.158;2023-05-07T09:34:09;4.00;4.00;3.00
34176;PMS7003;20450;49.074;9.158;2023-05-07T09:36:39;3.20;3.20;3.00
34176;PMS7003;20450;49.074;9.158;2023-05-07T09:39:08;4.80;4.80;4.60
34176;PMS7003;20450;49.074;9.158;2023-05-07T09:41:42;3.00;3.00;3.00
34176;PMS7003;20450;49.074;9.158;2023-05-07T09:44:27;4.00;4.00;3.00
34176;PMS7003;20450;49.074;9.158;2023-05-07T09:46:54;4.80;4.20;4.00
34176;PMS7003;20450;49.074;9.158;2023-05-07T09:49:33;4.20;4.20;4.00
34176;PMS7003;20450;49.074;9.158;2023-05-07T09:52:05;2.80;2.80;2.80
34176;PMS7003;20450;49.074;9.158;2023-05-07T09:54:36;3.60;3.60;3.40
34176;PMS7003;20450;49.074;9.158;2023-05-07T09:57:05;4.20;4.20;4.00
34176;PMS7003;20450;49.074;9.158;2023-05-07T09:59:35;5.20;5.20;5.00
34176;PMS7003;20450;49.074;9.158;2023-05-07T10:02:08;6.00;5.00;5.00
34176;PMS7003;20450;49.074;9.158;2023-05-07T10:04:44;5.00;5.00;4.80
34176;PMS7003;20450;49.074;9.158;2023-05-07T10:07:15;5.00;5.00;4.80
34176;PMS7003;20450;49.074;9.158;2023-05-07T10:09:46;4.60;4.60;3.80
34176;PMS7003;20450;49.074;9.158;2023-05-07T10:12:24;5.20;4.20;3.60
34176;PMS7003;20450;49.074;9.158;2023-05-07T10:17:51;5.00;5.00;4.40
34176;PMS7003;20450;49.074;9.158;2023-05-07T10:20:33;4.00;4.00;4.00
34176;PMS7003;20450;49.074;9.158;2023-05-07T10:23:05;5.80;5.80;5.00
34176;PMS7003;20450;49.074;9.158;2023-05-07T10:25:42;5.00;5.00;4.00
34176;PMS7003;20450;49.074;9.158;2023-05-07T10:28:17;3.80;3.80;3.20
34176;PMS7003;20450;49.074;9.158;2023-05-07T10:30:51;5.00;5.00;4.60
34176;PMS7003;20450;49.074;9.158;2023-05-07T10:33:40;2.80;2.80;2.40
34176;PMS7003;20450;49.074;9.158;2023-05-07T10:36:12;4.40;4.40;4.00
34176;PMS7003;20450;49.074;9.158;2023-05-07T10:38:40;3.60;3.60;3.20
34176;PMS7003;20450;49.074;9.158;2023-05-07T10:41:08;4.00;4.00;3.00
34176;PMS7003;20450;49.074;9.158;2023-05-07T10:43:40;4.00;4.00;4.00
34176;PMS7003;20450;49.074;9.158;2023-05-07T10:46:18;4.00;4.00;3.80
34176;PMS7003;20450;49.074;9.158;2023-05-07T10:49:07;3.40;3.40;2.60
34176;PMS7003;20450;49.074;9.158;2023-05-07T10:51:43;4.80;4.00;3.40
34176;PMS7003;20450;49.074;9.158;2023-05-07T10:54:21;3.60;3.60;3.00
34176;PMS7003;20450;49.074;9.158;2023-05-07T11:00:41;3.20;3.20;3.00
34176;PMS7003;20450;49.074;9.158;2023-05-07T11:03:12;3.20;3.20;2.80
34176;PMS7003;20450;49.074;9.158;2023-05-07T11:06:10;3.80;3.80;3.60
34176;PMS7003;20450;49.074;9.158;2023-05-07T11:08:54;3.20;3.20;3.00
34176;PMS7003;20450;49.074;9.158;2023-05-07T11:11:45;3.20;3.20;3.00
34176;PMS7003;20450;49.074;9.158;2023-05-07T11:14:44;4.00;4.00;3.20
34176;PMS7003;20450;49.074;9.158;2023-05-07T11:17:29;3.00;3.00;2.80
34176;PMS7003;20450;49.074;9.158;2023-05-07T11:20:02;3.40;2.40;2.20
34176;PMS7003;20450;49.074;9.158;2023-05-07T11:22:43;2.80;2.80;2.80
34176;PMS7003;20450;49.074;9.158;2023-05-07T11:25:24;3.00;3.00;2.80
34176;PMS7003;20450;49.074;9.158;2023-05-07T11:28:03;6.00;4.00;3.40
34176;PMS7003;20450;49.074;9.158;2023-05-07T11:30:34;4.00;4.00;3.00
34176;PMS7003;20450;49.074;9.158;2023-05-07T11:33:03;3.80;3.80;3.00
34176;PMS7003;20450;49.074;9.158;2023-05-07T11:35:33;3.00;3.00;2.20
34176;PMS7003;20450;49.074;9.158;2023-05-07T11:38:04;4.00;4.00;3.00
34176;PMS7003;20450;49.074;9.158;2023-05-07T11:40:33;7.40;5.40;3.60
34176;PMS7003;20450;49.074;9.158;2023-05-07T11:43:08;4.40;4.00;3.40
34176;PMS7003;20450;49.074;9.158;2023-05-07T11:45:38;4.40;3.40;3.00
34176;PMS7003;20450;49.074;9.158;2023-05-07T11:48:06;3.60;3.60;3.00
34176;PMS7003;20450;49.074;9.158;2023-05-07T11:50:33;3.00;3.00;3.00
34176;PMS7003;20450;49.074;9.158;2023-05-07T11:55:52;4.00;4.00;4.00
34176;PMS7003;20450;49.074;9.158;2023-05-07T11:58:20;3.00;3.00;3.00
34176;PMS7003;20450;49.074;9.158;2023-05-07T12:00:51;2.40;2.40;2.40
34176;PMS7003;20450;49.074;9.158;2023-05-07T12:03:23;3.00;3.00;3.00
34176;PMS7003;20450;49.074;9.158;2023-05-07T12:05:52;3.60;3.60;3.60
34176;PMS7003;20450;49.074;9.158;2023-05-07T12:08:20;3.40;3.40;3.00
34176;PMS7003;20450;49.074;9.158;2023-05-07T12:10:48;3.00;3.00;3.00
34176;PMS7003;20450;49.074;9.158;2023-05-07T12:13:16;3.40;3.00;3.00
34176;PMS7003;20450;49.074;9.158;2023-05-07T12:19:29;2.60;2.60;2.40
34176;PMS7003;20450;49.074;9.158;2023-05-07T12:21:57;3.00;2.60;2.40
34176;PMS7003;20450;49.074;9.158;2023-05-07T12:24:25;2.00;2.00;2.00
34176;PMS7003;20450;49.074;9.158;2023-05-07T12:26:52;3.40;3.40;3.20
34176;PMS7003;20450;49.074;9.158;2023-05-07T12:29:21;2.80;2.80;2.00
34176;PMS7003;20450;49.074;9.158;2023-05-07T12:31:49;3.00;3.00;3.00
34176;PMS7003;20450;49.074;9.158;2023-05-07T12:34:16;4.20;3.80;3.00
34176;PMS7003;20450;49.074;9.158;2023-05-07T12:36:45;2.60;2.40;2.20
34176;PMS7003;20450;49.074;9.158;2023-05-07T12:39:15;3.00;2.00;2.00
34176;PMS7003;20450;49.074;9.158;2023-05-07T12:41:52;2.20;2.20;2.00
34176;PMS7003;20450;49.074;9.158;2023-05-07T12:44:21;3.00;3.00;2.60
34176;PMS7003;20450;49.074;9.158;2023-05-07T12:46:49;2.00;2.00;2.00
34176;PMS7003;20450;49.074;9.158;2023-05-07T12:49:18;0.80;0.00;0.00
34176;PMS7003;20450;49.074;9.158;2023-05-07T12:51:52;3.00;3.00;3.00
34176;PMS7003;20450;49.074;9.158;2023-05-07T12:54:29;3.00;3.00;3.00
34176;PMS7003;20450;49.074;9.158;2023-05-07T12:57:01;4.00;4.00;3.20
34176;PMS7003;20450;49.074;9.158;2023-05-07T12:59:32;3.20;3.20;2.80
34176;PMS7003;20450;49.074;9.158;2023-05-07T13:02:01;4.00;4.00;3.00
34176;PMS7003;20450;49.074;9.158;2023-05-07T13:04:28;2.00;2.00;2.00
34176;PMS7003;20450;49.074;9.158;2023-05-07T13:06:57;3.00;3.00;2.00
34176;PMS7003;20450;49.074;9.158;2023-05-07T13:09:25;3.00;3.00;2.60
34176;PMS7003;20450;49.074;9.158;2023-05-07T13:11:52;2.00;2.00;2.00
34176;PMS7003;20450;49.074;9.158;2023-05-07T13:14:20;2.00;2.00;2.00
34176;PMS7003;20450;49.074;9.158;2023-05-07T13:16:47;4.20;3.00;2.40
34176;PMS7003;20450;49.074;9.158;2023-05-07T13:19:15;3.80;2.80;2.20
34176;PMS7003;20450;49.074;9.158;2023-05-07T13:21:42;2.60;2.60;2.40
34176;PMS7003;20450;49.074;9.158;2023-05-07T13:24:14;2.20;2.20;2.00
34176;PMS7003;20450;49.074;9.158;2023-05-07T13:26:41;4.00;4.00;3.00
34176;PMS7003;20450;49.074;9.158;2023-05-07T13:29:11;4.40;2.40;2.20
34176;PMS7003;20450;49.074;9.158;2023-05-07T13:36:04;2.00;2.00;2.00
34176;PMS7003;20450;49.074;9.158;2023-05-07T13:38:32;2.60;2.60;2.00
34176;PMS7003;20450;49.074;9.158;2023-05-07T13:41:01;2.60;2.00;2.00
34176;PMS7003;20450;49.074;9.158;2023-05-07T13:43:30;4.00;3.00;2.00
34176;PMS7003;20450;49.074;9.158;2023-05-07T13:45:57;3.60;2.00;1.00
34176;PMS7003;20450;49.074;9.158;2023-05-07T13:48:24;3.20;3.20;3.00
34176;PMS7003;20450;49.074;9.158;2023-05-07T13:50:52;3.00;3.00;3.00
34176;PMS7003;20450;49.074;9.158;2023-05-07T13:53:19;5.00;1.40;1.00
34176;PMS7003;20450;49.074;9.158;2023-05-07T13:55:49;2.00;2.00;1.00
34176;PMS7003;20450;49.074;9.158;2023-05-07T14:02:02;1.40;1.40;1.00
34176;PMS7003;20450;49.074;9.158;2023-05-07T14:04:29;4.20;2.60;2.00
34176;PMS7003;20450;49.074;9.158;2023-05-07T14:06:57;6.00;6.00;5.25
34176;PMS7003;20450;49.074;9.158;2023-05-07T14:09:24;3.25;3.25;3.25
34176;PMS7003;20450;49.074;9.158;2023-05-07T14:11:51;2.00;2.00;2.00
34176;PMS7003;20450;49.074;9.158;2023-05-07T14:14:18;4.00;4.00;4.00
34176;PMS7003;20450;49.074;9.158;2023-05-07T14:16:47;5.00;5.00;4.00
34176;PMS7003;20450;49.074;9.158;2023-05-07T14:19:18;4.25;3.75;3.00
34176;PMS7003;20450;49.074;9.158;2023-05-07T14:21:47;4.25;4.25;3.50
34176;PMS7003;20450;49.074;9.158;2023-05-07T14:24:14;5.00;3.75;2.00
34176;PMS7003;20450;49.074;9.158;2023-05-07T14:27:00;3.75;2.00;2.00
34176;PMS7003;20450;49.074;9.158;2023-05-07T14:29:27;2.00;2.00;1.50
34176;PMS7003;20450;49.074;9.158;2023-05-07T14:31:54;4.00;4.00;3.50
34176;PMS7003;20450;49.074;9.158;2023-05-07T14:34:23;2.00;2.00;1.50
34176;PMS7003;20450;49.074;9.158;2023-05-07T14:36:50;3.00;3.00;2.00
34176;PMS7003;20450;49.074;9.158;2023-05-07T14:42:36;5.00;5.00;4.00
34176;PMS7003;20450;49.074;9.158;2023-05-07T14:45:04;6.00;6.00;5.50
34176;PMS7003;20450;49.074;9.158;2023-05-07T14:47:33;5.00;4.00;3.25
34176;PMS7003;20450;49.074;9.158;2023-05-07T14:50:02;6.00;5.00;4.25
34176;PMS7003;20450;49.074;9.158;2023-05-07T14:52:29;2.00;2.00;2.00
34176;PMS7003;20450;49.074;9.158;2023-05-07T14:54:56;4.00;4.00;2.25
34176;PMS7003;20450;49.074;9.158;2023-05-07T14:57:23;6.00;5.00;3.25
34176;PMS7003;20450;49.074;9.158;2023-05-07T14:59:50;6.25;4.25;4.25